Jj Sky — VRJA6 — position and weather

sailwx.info

Track history (hours):
 
Tides and Currents Weather Stations Pressure Air Temp Water Temp Dewpoint Dewpoint Depression Visibility Wind Speed Wind Dir Waves Ship Positions

Jj Sky

Last reported at 2016-May-06 23:23 UTC. Time now 2016-May-07 00:29 UTC.
Position N 31°05' E 122°30'.

Length 148 m; draft 7 m.

Type: Ship (hazmat cat D). MMSI: 477397500.

Date/timePositionNaut miles runAvg speedWind from/ knotsBaromVisibWave heightAir tempDewpointWater temp
2016-May-06 23:23N 31°05' E 122°30'1011.5
2016-May-06 22:33N 31°06' E 122°19'30 4.2
2016-May-06 15:29N 31°18' E 121°47'6 0.6
2016-May-06 04:26N 31°20' E 121°40'3 3.1
2016-May-06 03:29N 31°22' E 121°38'1 0.4
2016-May-06 01:28N 31°22' E 121°39'0 0.0
2016-May-05 16:12N 31°22' E 121°39'0 0.0
2016-May-05 13:29N 31°22' E 121°39'0 0.0
2016-May-05 10:25N 31°22' E 121°39'0 0.0
2016-May-04 16:30N 31°22' E 121°39'0 0.0
2016-May-04 14:08N 31°22' E 121°39'0 0.0
2016-May-04 08:29N 31°22' E 121°39'0 0.0
2016-May-03 22:07N 31°22' E 121°39'0 0.0
2016-May-03 21:24N 31°22' E 121°39'0 0.0
2016-May-03 20:33N 31°22' E 121°39'0 0.0
2016-May-03 19:29N 31°22' E 121°39'0 0.0
2016-May-03 17:20N 31°22' E 121°39'0 0.0
2016-May-03 16:22N 31°22' E 121°39'0 0.0
2016-May-03 09:25N 31°22' E 121°39'0 0.0
2016-May-03 07:06N 31°22' E 121°39'0 0.0
2016-May-03 06:24N 31°22' E 121°39'0 0.0
2016-May-03 05:17N 31°22' E 121°39'0 0.0
2016-May-03 03:14N 31°22' E 121°39'0 0.0
2016-May-02 22:32N 31°22' E 121°39'0 0.0
2016-May-02 19:31N 31°22' E 121°39'0 0.0
2016-May-02 16:24N 31°22' E 121°39'0 0.0
2016-May-02 12:16N 31°22' E 121°39'0 0.6
2016-May-02 11:28N 31°21' E 121°39'2 0.3
2016-May-02 05:32N 31°20' E 121°40'1 1.1
2016-May-02 04:19N 31°20' E 121°41'25 1.3
2016-May-01 08:33N 31°12' E 122°09'41214.0
2016-Apr-30 03:03N 33°39' E 129°46'714.0
2016-Apr-30 02:33N 33°42' E 129°53'1413.8
2016-Apr-30 01:33N 33°50' E 130°07'1413.6
2016-Apr-30 00:32N 33°57' E 130°21'1813.2
2016-Apr-29 23:09N 34°03' E 130°41'20412.8
2016-Apr-29 07:09N 34°33' E 134°46'914.2
2016-Apr-29 06:33N 34°37' E 134°56'1313.3
2016-Apr-29 05:33N 34°36' E 135°12'4 3.8
2016-Apr-29 04:31N 34°39' E 135°14'0 0.0
2016-Apr-29 03:12N 34°39' E 135°14'0 0.0
2016-Apr-29 02:33N 34°39' E 135°14'0 0.0
2016-Apr-29 01:29N 34°39' E 135°14'0 0.0
2016-Apr-29 00:23N 34°39' E 135°14'0 0.0
2016-Apr-28 23:25N 34°39' E 135°14'0 0.0
2016-Apr-28 22:28N 34°39' E 135°14'5 5.8
2016-Apr-28 21:34N 34°39' E 135°21'3 2.4
2016-Apr-28 20:23N 34°39' E 135°24'0 0.0
2016-Apr-28 19:28N 34°39' E 135°24'0 0.0
2016-Apr-28 18:22N 34°39' E 135°24'0 0.0
2016-Apr-28 17:28N 34°39' E 135°24'0 0.0
2016-Apr-28 16:33N 34°39' E 135°24'0 0.0
2016-Apr-28 15:33N 34°39' E 135°24'0 0.1
2016-Apr-28 14:28N 34°39' E 135°24'0 0.0
2016-Apr-28 13:22N 34°39' E 135°24'0 0.0
2016-Apr-28 12:33N 34°39' E 135°24'0 0.0
2016-Apr-28 11:27N 34°39' E 135°24'0 0.0
2016-Apr-28 10:26N 34°39' E 135°24'0 0.0
2016-Apr-28 09:32N 34°39' E 135°24'0 0.0
2016-Apr-28 08:32N 34°39' E 135°24'0 0.0
2016-Apr-28 07:25N 34°39' E 135°24'0 0.0
2016-Apr-28 06:25N 34°39' E 135°24'0 0.0
2016-Apr-28 05:18N 34°39' E 135°24'0 0.0
2016-Apr-28 04:26N 34°39' E 135°24'0 0.0
2016-Apr-28 03:26N 34°39' E 135°24'0 0.0
2016-Apr-28 02:14N 34°39' E 135°24'0 0.0
2016-Apr-28 01:30N 34°39' E 135°24'0 0.0
2016-Apr-28 00:29N 34°39' E 135°24'0 0.0
2016-Apr-27 23:29N 34°39' E 135°24'0 0.0
2016-Apr-27 22:04N 34°39' E 135°24'2 4.1
2016-Apr-27 21:33N 34°38' E 135°22'1212.4
2016-Apr-27 20:34N 34°35' E 135°08'1615.7
2016-Apr-27 19:32N 34°33' E 134°48'23213.5
2016-Apr-27 02:17N 33°52' E 130°12'1114.9
2016-Apr-27 01:33N 33°45' E 130°02'  
Track history (hours):
 
Tides and Currents Weather Stations Pressure Air Temp Water Temp Dewpoint Dewpoint Depression Visibility Wind Speed Wind Dir Waves Ship Positions

Jj Sky

Last reported at 2016-May-06 23:23 UTC. Time now 2016-May-07 00:29 UTC.
Position N 31°05' E 122°30'.

Length 148 m; draft 7 m.

Type: Ship (hazmat cat D). MMSI: 477397500.

Date/timePositionNaut miles runAvg speedWind from/ knotsBaromVisibWave heightAir tempDewpointWater temp
2016-May-06 23:23N 31°05' E 122°30'1011.5
2016-May-06 22:33N 31°06' E 122°19'30 4.2
2016-May-06 15:29N 31°18' E 121°47'6 0.6
2016-May-06 04:26N 31°20' E 121°40'3 3.1
2016-May-06 03:29N 31°22' E 121°38'1 0.4
2016-May-06 01:28N 31°22' E 121°39'0 0.0
2016-May-05 16:12N 31°22' E 121°39'0 0.0
2016-May-05 13:29N 31°22' E 121°39'0 0.0
2016-May-05 10:25N 31°22' E 121°39'0 0.0
2016-May-04 16:30N 31°22' E 121°39'0 0.0
2016-May-04 14:08N 31°22' E 121°39'0 0.0
2016-May-04 08:29N 31°22' E 121°39'0 0.0
2016-May-03 22:07N 31°22' E 121°39'0 0.0
2016-May-03 21:24N 31°22' E 121°39'0 0.0
2016-May-03 20:33N 31°22' E 121°39'0 0.0
2016-May-03 19:29N 31°22' E 121°39'0 0.0
2016-May-03 17:20N 31°22' E 121°39'0 0.0
2016-May-03 16:22N 31°22' E 121°39'0 0.0
2016-May-03 09:25N 31°22' E 121°39'0 0.0
2016-May-03 07:06N 31°22' E 121°39'0 0.0
2016-May-03 06:24N 31°22' E 121°39'0 0.0
2016-May-03 05:17N 31°22' E 121°39'0 0.0
2016-May-03 03:14N 31°22' E 121°39'0 0.0
2016-May-02 22:32N 31°22' E 121°39'0 0.0
2016-May-02 19:31N 31°22' E 121°39'0 0.0
2016-May-02 16:24N 31°22' E 121°39'0 0.0
2016-May-02 12:16N 31°22' E 121°39'0 0.6
2016-May-02 11:28N 31°21' E 121°39'2 0.3
2016-May-02 05:32N 31°20' E 121°40'1 1.1
2016-May-02 04:19N 31°20' E 121°41'25 1.3
2016-May-01 08:33N 31°12' E 122°09'41214.0
2016-Apr-30 03:03N 33°39' E 129°46'714.0
2016-Apr-30 02:33N 33°42' E 129°53'1413.8
2016-Apr-30 01:33N 33°50' E 130°07'1413.6
2016-Apr-30 00:32N 33°57' E 130°21'1813.2
2016-Apr-29 23:09N 34°03' E 130°41'20412.8
2016-Apr-29 07:09N 34°33' E 134°46'914.2
2016-Apr-29 06:33N 34°37' E 134°56'1313.3
2016-Apr-29 05:33N 34°36' E 135°12'4 3.8
2016-Apr-29 04:31N 34°39' E 135°14'0 0.0
2016-Apr-29 03:12N 34°39' E 135°14'0 0.0
2016-Apr-29 02:33N 34°39' E 135°14'0 0.0
2016-Apr-29 01:29N 34°39' E 135°14'0 0.0
2016-Apr-29 00:23N 34°39' E 135°14'0 0.0
2016-Apr-28 23:25N 34°39' E 135°14'0 0.0
2016-Apr-28 22:28N 34°39' E 135°14'5 5.8
2016-Apr-28 21:34N 34°39' E 135°21'3 2.4
2016-Apr-28 20:23N 34°39' E 135°24'0 0.0
2016-Apr-28 19:28N 34°39' E 135°24'0 0.0
2016-Apr-28 18:22N 34°39' E 135°24'0 0.0
2016-Apr-28 17:28N 34°39' E 135°24'0 0.0
2016-Apr-28 16:33N 34°39' E 135°24'0 0.0
2016-Apr-28 15:33N 34°39' E 135°24'0 0.1
2016-Apr-28 14:28N 34°39' E 135°24'0 0.0
2016-Apr-28 13:22N 34°39' E 135°24'0 0.0
2016-Apr-28 12:33N 34°39' E 135°24'0 0.0
2016-Apr-28 11:27N 34°39' E 135°24'0 0.0
2016-Apr-28 10:26N 34°39' E 135°24'0 0.0
2016-Apr-28 09:32N 34°39' E 135°24'0 0.0
2016-Apr-28 08:32N 34°39' E 135°24'0 0.0
2016-Apr-28 07:25N 34°39' E 135°24'0 0.0
2016-Apr-28 06:25N 34°39' E 135°24'0 0.0
2016-Apr-28 05:18N 34°39' E 135°24'0 0.0
2016-Apr-28 04:26N 34°39' E 135°24'0 0.0
2016-Apr-28 03:26N 34°39' E 135°24'0 0.0
2016-Apr-28 02:14N 34°39' E 135°24'0 0.0
2016-Apr-28 01:30N 34°39' E 135°24'0 0.0
2016-Apr-28 00:29N 34°39' E 135°24'0 0.0
2016-Apr-27 23:29N 34°39' E 135°24'0 0.0
2016-Apr-27 22:04N 34°39' E 135°24'2 4.1
2016-Apr-27 21:33N 34°38' E 135°22'1212.4
2016-Apr-27 20:34N 34°35' E 135°08'1615.7
2016-Apr-27 19:32N 34°33' E 134°48'23213.5
2016-Apr-27 02:17N 33°52' E 130°12'1114.9
2016-Apr-27 01:33N 33°45' E 130°02'  

Dump ship's entire track history